createdAt,value
2022-12-01T00:01:19.402Z,35.60
2022-12-01T00:03:47.246Z,33.70
2022-12-01T00:06:17.005Z,34.77
2022-12-01T00:09:06.538Z,35.20
2022-12-01T00:11:35.820Z,35.00
2022-12-01T00:14:04.182Z,33.57
2022-12-01T00:16:32.668Z,35.50
2022-12-01T00:19:00.566Z,34.73
2022-12-01T00:21:28.674Z,34.60
2022-12-01T00:23:58.473Z,32.23
2022-12-01T00:26:27.328Z,33.47
2022-12-01T00:28:58.016Z,33.17
2022-12-01T00:31:26.573Z,32.90
2022-12-01T00:33:54.632Z,32.77
2022-12-01T00:36:23.481Z,30.83
2022-12-01T00:38:53.379Z,29.70
2022-12-01T00:41:21.111Z,31.40
2022-12-01T00:43:49.134Z,29.93
2022-12-01T00:46:18.608Z,29.27
2022-12-01T00:48:46.349Z,30.53
2022-12-01T00:51:14.108Z,29.67
2022-12-01T00:53:41.862Z,30.50
2022-12-01T00:56:09.602Z,28.47
2022-12-01T00:58:37.323Z,29.47
2022-12-01T01:01:05.288Z,30.73
2022-12-01T01:03:35.386Z,31.07
2022-12-01T01:06:07.121Z,30.90
2022-12-01T01:08:36.118Z,30.27
2022-12-01T01:11:05.034Z,29.90
2022-12-01T01:13:33.010Z,31.70
2022-12-01T01:16:01.854Z,30.43
2022-12-01T01:18:30.101Z,30.93
2022-12-01T01:21:00.976Z,28.20
2022-12-01T01:23:28.705Z,28.57
2022-12-01T01:26:03.246Z,31.13
2022-12-01T01:28:31.472Z,27.93
2022-12-01T01:30:59.697Z,28.13
2022-12-01T01:33:27.519Z,24.87
2022-12-01T01:35:55.228Z,26.93
2022-12-01T01:38:24.306Z,27.33
2022-12-01T01:40:52.023Z,25.23
2022-12-01T01:43:40.379Z,24.30
2022-12-01T01:46:11.210Z,24.83
2022-12-01T01:48:41.630Z,24.33
2022-12-01T01:51:10.508Z,24.70
2022-12-01T01:53:39.839Z,24.47
2022-12-01T01:56:09.785Z,23.73
2022-12-01T01:58:39.207Z,22.47
2022-12-01T02:01:07.828Z,22.53
2022-12-01T02:03:38.225Z,22.47
2022-12-01T02:06:07.425Z,23.40
2022-12-01T02:08:38.177Z,24.07
2022-12-01T02:11:34.667Z,22.77
2022-12-01T02:14:09.904Z,21.73
2022-12-01T02:16:45.646Z,23.33
2022-12-01T02:19:42.136Z,21.20
2022-12-01T02:22:20.111Z,20.40
2022-12-01T02:25:13.869Z,20.20
2022-12-01T02:28:04.034Z,19.77
2022-12-01T02:30:41.072Z,20.37
2022-12-01T02:33:17.165Z,19.17
2022-12-01T02:35:49.581Z,19.37
2022-12-01T02:38:26.354Z,19.63
2022-12-01T02:41:02.493Z,19.70
2022-12-01T02:43:35.340Z,22.37
2022-12-01T02:46:10.869Z,21.17
2022-12-01T02:48:42.926Z,22.20
2022-12-01T02:51:14.740Z,20.50
2022-12-01T02:53:42.560Z,20.30
2022-12-01T02:56:13.544Z,21.20
2022-12-01T02:58:41.603Z,19.77
2022-12-01T03:01:25.381Z,22.17
2022-12-01T03:04:02.685Z,22.60
2022-12-01T03:06:41.865Z,20.57
2022-12-01T03:09:19.646Z,21.90
2022-12-01T03:11:56.746Z,21.93
2022-12-01T03:14:34.350Z,22.47
2022-12-01T03:17:09.073Z,21.87
2022-12-01T03:19:42.719Z,20.53
2022-12-01T03:22:14.694Z,20.87
2022-12-01T03:24:45.191Z,21.53
2022-12-01T03:27:16.177Z,22.07
2022-12-01T03:29:47.815Z,21.40
2022-12-01T03:32:21.128Z,22.97
2022-12-01T03:34:52.729Z,21.93
2022-12-01T03:37:25.287Z,21.90
2022-12-01T03:40:00.482Z,22.13
2022-12-01T03:42:34.393Z,22.87
2022-12-01T03:45:08.525Z,22.93
2022-12-01T03:47:39.532Z,23.93
2022-12-01T03:50:13.923Z,24.47
2022-12-01T03:52:49.527Z,23.37
2022-12-01T03:55:22.091Z,24.27
2022-12-01T03:57:55.270Z,25.87
2022-12-01T04:00:23.800Z,24.87
2022-12-01T04:02:57.552Z,26.07
2022-12-01T04:05:26.008Z,25.73
2022-12-01T04:07:54.382Z,27.03
2022-12-01T04:10:22.417Z,25.00
2022-12-01T04:12:49.565Z,24.63
2022-12-01T04:15:17.869Z,25.50
2022-12-01T04:17:46.034Z,27.40
2022-12-01T04:20:16.701Z,24.53
2022-12-01T04:22:44.603Z,24.67
2022-12-01T04:25:12.876Z,25.13
2022-12-01T04:27:40.868Z,24.10
2022-12-01T04:30:09.694Z,22.67
2022-12-01T04:32:39.801Z,25.17
2022-12-01T04:35:08.610Z,23.10
2022-12-01T04:37:38.116Z,24.27
2022-12-01T04:40:07.347Z,27.40
2022-12-01T04:42:35.382Z,30.73
2022-12-01T04:45:03.169Z,25.43
2022-12-01T04:47:30.882Z,23.43
2022-12-01T04:49:58.599Z,23.03
2022-12-01T04:52:29.463Z,23.50
2022-12-01T04:55:03.354Z,23.43
2022-12-01T04:57:31.071Z,24.27
2022-12-01T04:59:58.768Z,23.70
2022-12-01T05:02:26.661Z,24.53
2022-12-01T05:04:54.433Z,25.00
2022-12-01T05:07:22.209Z,24.80
2022-12-01T05:09:50.347Z,26.33
2022-12-01T05:12:19.901Z,25.43
2022-12-01T05:14:47.653Z,24.07
2022-12-01T05:17:15.382Z,26.10
2022-12-01T05:20:09.100Z,23.87
2022-12-01T05:23:04.298Z,23.90
2022-12-01T05:25:24.527Z,24.77
2022-12-01T05:27:53.653Z,25.97
2022-12-01T05:30:27.012Z,26.53
2022-12-01T05:32:56.464Z,24.90
2022-12-01T05:35:24.205Z,23.63
2022-12-01T05:37:51.908Z,26.83
2022-12-01T05:40:19.880Z,24.40
2022-12-01T05:42:47.613Z,25.97
2022-12-01T05:45:16.993Z,23.43
2022-12-01T05:47:44.721Z,26.30
2022-12-01T05:50:12.596Z,23.73
2022-12-01T05:52:40.351Z,26.10
2022-12-01T05:55:08.987Z,24.17
2022-12-01T05:57:36.707Z,23.87
2022-12-01T06:00:05.934Z,25.33
2022-12-01T06:02:35.075Z,25.60
2022-12-01T06:05:02.798Z,26.80
2022-12-01T06:07:30.777Z,25.37
2022-12-01T06:09:58.551Z,25.50
2022-12-01T06:12:26.282Z,25.20
2022-12-01T06:14:54.050Z,24.93
2022-12-01T06:17:21.781Z,24.03
2022-12-01T06:19:51.194Z,24.47
2022-12-01T06:22:19.053Z,23.70
2022-12-01T06:24:46.771Z,24.67
2022-12-01T06:27:14.626Z,23.97
2022-12-01T06:29:44.862Z,22.00
2022-12-01T06:32:12.582Z,22.47
2022-12-01T06:34:40.328Z,22.53
2022-12-01T06:37:09.397Z,22.37
2022-12-01T06:39:37.130Z,23.37
2022-12-01T06:42:05.074Z,21.83
2022-12-01T06:44:32.807Z,23.03
2022-12-01T06:47:00.545Z,22.03
2022-12-01T06:49:28.276Z,21.93
2022-12-01T06:51:55.992Z,21.30
2022-12-01T06:54:25.074Z,21.67
2022-12-01T06:56:52.836Z,21.37
2022-12-01T06:59:20.930Z,21.30
2022-12-01T07:01:49.150Z,20.47
2022-12-01T07:04:17.005Z,19.50
2022-12-01T07:06:44.764Z,18.93
2022-12-01T07:09:12.534Z,19.90
2022-12-01T07:11:41.602Z,18.97
2022-12-01T07:14:17.967Z,17.90
2022-12-01T07:16:45.724Z,21.00
2022-12-01T07:19:13.485Z,21.33
2022-12-01T07:21:41.416Z,19.37
2022-12-01T07:24:09.471Z,19.73
2022-12-01T07:26:37.210Z,19.77
2022-12-01T07:29:07.659Z,20.73
2022-12-01T07:31:35.406Z,20.40
2022-12-01T07:34:03.179Z,19.47
2022-12-01T07:36:30.917Z,20.40
2022-12-01T07:39:07.546Z,21.30
2022-12-01T07:41:35.926Z,23.17
2022-12-01T07:44:03.875Z,22.90
2022-12-01T07:46:33.048Z,20.00
2022-12-01T07:49:00.786Z,20.13
2022-12-01T07:51:29.005Z,22.07
2022-12-01T07:53:58.663Z,21.80
2022-12-01T07:56:28.706Z,23.67
2022-12-01T07:58:56.694Z,22.40
2022-12-01T08:01:28.242Z,22.63
2022-12-01T08:03:59.217Z,22.27
2022-12-01T08:06:27.669Z,24.73
2022-12-01T08:08:55.929Z,23.40
2022-12-01T08:11:25.498Z,24.13
2022-12-01T08:13:54.188Z,26.13
2022-12-01T08:16:24.353Z,25.23
2022-12-01T08:18:52.700Z,23.80
2022-12-01T08:21:23.467Z,23.30
2022-12-01T08:23:54.650Z,25.90
2022-12-01T08:26:23.679Z,26.43
2022-12-01T08:28:58.894Z,24.43
2022-12-01T08:31:28.808Z,24.20
2022-12-01T08:33:56.947Z,23.10
2022-12-01T08:36:26.644Z,25.83
2022-12-01T08:38:56.238Z,25.93
2022-12-01T08:41:25.253Z,26.67
2022-12-01T08:43:58.343Z,28.33
2022-12-01T08:46:27.786Z,25.57
2022-12-01T08:48:57.431Z,26.80
2022-12-01T08:51:27.405Z,25.60
2022-12-01T08:53:57.424Z,28.30
2022-12-01T08:56:28.412Z,25.77
2022-12-01T08:58:56.678Z,27.93
2022-12-01T09:01:25.883Z,26.03
2022-12-01T09:04:05.899Z,25.53
2022-12-01T09:06:39.462Z,29.20
2022-12-01T09:09:07.797Z,27.83
2022-12-01T09:11:35.576Z,27.00
2022-12-01T09:14:03.369Z,27.90
2022-12-01T09:16:31.444Z,28.77
2022-12-01T09:18:59.266Z,29.07
2022-12-01T09:21:30.385Z,29.00
2022-12-01T09:23:59.524Z,30.20
2022-12-01T09:26:28.042Z,27.70
2022-12-01T09:28:57.857Z,26.87
2022-12-01T09:31:25.837Z,28.03
2022-12-01T09:33:56.921Z,25.30
2022-12-01T09:36:24.846Z,22.97
2022-12-01T09:38:52.651Z,27.77
2022-12-01T09:41:25.494Z,28.50
2022-12-01T09:43:59.694Z,28.77
2022-12-01T09:46:33.255Z,27.53
2022-12-01T09:49:03.795Z,26.90
2022-12-01T09:51:34.842Z,28.10
2022-12-01T09:54:03.351Z,25.87
2022-12-01T09:56:37.278Z,26.47
2022-12-01T09:59:08.670Z,23.17
2022-12-01T10:01:39.651Z,24.70
2022-12-01T10:04:13.004Z,27.40
2022-12-01T10:06:47.476Z,26.37
2022-12-01T10:09:24.454Z,27.40
2022-12-01T10:12:00.298Z,25.50
2022-12-01T10:14:31.107Z,26.40
2022-12-01T10:17:05.433Z,25.97
2022-12-01T10:19:40.756Z,21.97
2022-12-01T10:22:23.728Z,24.37
2022-12-01T10:24:57.174Z,25.50
2022-12-01T10:27:44.646Z,26.27
2022-12-01T10:30:16.854Z,25.53
2022-12-01T10:32:52.472Z,24.83
2022-12-01T10:35:22.584Z,24.63
2022-12-01T10:37:55.614Z,26.20
2022-12-01T10:40:23.852Z,23.27
2022-12-01T10:42:53.300Z,24.57
2022-12-01T10:45:23.955Z,22.47
2022-12-01T10:48:15.386Z,22.73
2022-12-01T10:50:44.338Z,25.33
2022-12-01T10:53:28.544Z,24.20
2022-12-01T10:56:07.259Z,24.40
2022-12-01T10:58:44.489Z,22.87
2022-12-01T11:01:19.146Z,22.33
2022-12-01T11:03:52.712Z,25.17
2022-12-01T11:06:26.621Z,24.83
2022-12-01T11:08:57.910Z,25.03
2022-12-01T11:11:35.169Z,22.80
2022-12-01T11:14:06.887Z,23.47
2022-12-01T11:16:41.605Z,23.33
2022-12-01T11:19:23.545Z,24.77
2022-12-01T11:21:56.467Z,22.37
2022-12-01T11:24:35.724Z,23.43
2022-12-01T11:27:03.495Z,23.50
2022-12-01T11:29:36.854Z,22.87
2022-12-01T11:32:17.165Z,24.00
2022-12-01T11:34:50.909Z,23.23
2022-12-01T11:37:21.309Z,24.17
2022-12-01T11:39:50.378Z,23.40
2022-12-01T11:42:24.213Z,24.37
2022-12-01T11:44:56.618Z,22.47
2022-12-01T11:47:26.519Z,25.13
2022-12-01T11:49:56.637Z,25.60
2022-12-01T11:52:28.293Z,25.27
2022-12-01T11:54:58.024Z,25.90
2022-12-01T11:57:34.228Z,23.93
2022-12-01T12:00:14.195Z,25.47
2022-12-01T12:02:52.359Z,27.83
2022-12-01T12:05:45.318Z,25.57
2022-12-01T12:08:24.077Z,25.17
2022-12-01T12:11:01.938Z,24.27
2022-12-01T12:13:46.053Z,24.00
2022-12-01T12:16:21.570Z,25.67
2022-12-01T12:19:04.393Z,26.97
2022-12-01T12:21:35.417Z,25.63
2022-12-01T12:24:25.282Z,25.97
2022-12-01T12:27:01.459Z,26.57
2022-12-01T12:29:42.556Z,27.77
2022-12-01T12:32:38.009Z,26.77
2022-12-01T12:35:18.997Z,25.20
2022-12-01T12:37:52.527Z,26.33
2022-12-01T12:40:37.534Z,26.63
2022-12-01T12:43:21.003Z,25.90
2022-12-01T12:46:00.966Z,27.37
2022-12-01T12:49:18.221Z,25.73
2022-12-01T12:51:43.612Z,26.20
2022-12-01T12:54:21.968Z,25.43
2022-12-01T12:56:55.133Z,25.80
2022-12-01T12:59:29.211Z,27.57
2022-12-01T13:02:02.292Z,26.37
2022-12-01T13:04:40.133Z,26.97
2022-12-01T13:07:11.834Z,27.13
2022-12-01T13:09:43.411Z,26.43
2022-12-01T13:12:15.950Z,25.73
2022-12-01T13:14:47.452Z,27.80
2022-12-01T13:17:21.189Z,27.00
2022-12-01T13:19:50.675Z,26.80
2022-12-01T13:22:22.881Z,28.10
2022-12-01T13:24:50.900Z,28.00
2022-12-01T13:27:22.323Z,27.80
2022-12-01T13:29:51.725Z,27.63
2022-12-01T13:32:31.722Z,26.77
2022-12-01T13:35:02.689Z,27.83
2022-12-01T13:37:32.916Z,27.60
2022-12-01T13:40:10.852Z,27.47
2022-12-01T13:42:39.894Z,27.87
2022-12-01T13:45:18.395Z,26.90
2022-12-01T13:47:51.865Z,28.17
2022-12-01T13:50:56.164Z,27.03
2022-12-01T13:53:33.003Z,26.63
2022-12-01T13:56:26.219Z,26.47
2022-12-01T13:58:55.341Z,25.47
2022-12-01T14:01:45.854Z,26.40
2022-12-01T14:04:29.185Z,27.07
2022-12-01T14:07:20.562Z,26.77
2022-12-01T14:09:50.388Z,26.10
2022-12-01T14:12:22.038Z,23.87
2022-12-01T14:14:55.778Z,26.73
2022-12-01T14:17:30.486Z,27.80
2022-12-01T14:20:08.416Z,27.80
2022-12-01T14:22:40.132Z,26.27
2022-12-01T14:25:24.341Z,26.40
2022-12-01T14:27:53.836Z,27.23
2022-12-01T14:30:58.811Z,24.73
2022-12-01T14:33:47.491Z,27.27
2022-12-01T14:36:23.783Z,25.40
2022-12-01T14:39:00.059Z,25.60
2022-12-01T14:41:30.740Z,27.47
2022-12-01T14:44:04.602Z,27.10
2022-12-01T14:46:40.511Z,26.23
2022-12-01T14:49:14.090Z,24.27
2022-12-01T14:51:47.016Z,27.13
2022-12-01T14:54:24.801Z,27.03
2022-12-01T14:56:55.902Z,27.73
2022-12-01T14:59:26.638Z,49.77
2022-12-01T15:02:08.885Z,27.63
2022-12-01T15:04:37.578Z,26.23
2022-12-01T15:07:05.334Z,27.23
2022-12-01T15:09:35.495Z,27.33
2022-12-01T15:12:07.350Z,26.43
2022-12-01T15:14:37.566Z,27.10
2022-12-01T15:17:06.938Z,26.57
2022-12-01T15:19:37.698Z,35.43
2022-12-01T15:22:12.532Z,25.57
2022-12-01T15:24:42.698Z,27.63
2022-12-01T15:27:26.012Z,25.77
2022-12-01T15:29:57.113Z,27.37
2022-12-01T15:32:26.004Z,32.00
2022-12-01T15:34:55.751Z,29.37
2022-12-01T15:37:27.762Z,25.70
2022-12-01T15:43:02.641Z,26.37
2022-12-01T15:45:30.459Z,23.97
2022-12-01T15:47:59.555Z,28.03
2022-12-01T15:50:31.155Z,26.70
2022-12-01T15:53:00.293Z,25.50
2022-12-01T15:55:32.465Z,27.33
2022-12-01T15:58:01.095Z,27.00
2022-12-01T16:00:29.146Z,28.03
2022-12-01T16:03:00.161Z,25.80
2022-12-01T16:05:31.491Z,25.73
2022-12-01T16:08:14.216Z,26.93
2022-12-01T16:10:43.485Z,25.93
2022-12-01T16:13:45.819Z,27.23
2022-12-01T16:16:39.070Z,27.77
2022-12-01T16:19:26.332Z,26.43
2022-12-01T16:21:57.634Z,26.97
2022-12-01T16:24:29.833Z,26.50
2022-12-01T16:27:02.372Z,26.07
2022-12-01T16:29:32.613Z,26.83
2022-12-01T16:32:20.146Z,27.77
2022-12-01T16:34:48.958Z,24.23
2022-12-01T16:37:17.033Z,25.07
2022-12-01T16:39:44.945Z,24.33
2022-12-01T16:42:16.285Z,24.83
2022-12-01T16:44:44.770Z,24.77
2022-12-01T16:47:17.674Z,24.10
2022-12-01T16:49:45.483Z,24.23
2022-12-01T16:52:43.252Z,23.90
2022-12-01T16:55:00.956Z,24.43
2022-12-01T16:57:30.563Z,23.23
2022-12-01T16:59:58.246Z,21.87
2022-12-01T17:02:25.972Z,24.57
2022-12-01T17:04:53.802Z,22.30
2022-12-01T17:07:21.634Z,22.90
2022-12-01T17:09:49.388Z,21.63
2022-12-01T17:12:17.112Z,23.27
2022-12-01T17:14:46.218Z,22.87
2022-12-01T17:17:13.938Z,23.23
2022-12-01T17:19:41.674Z,23.60
2022-12-01T17:22:09.383Z,24.13
2022-12-01T17:24:37.148Z,23.63
2022-12-01T17:27:04.971Z,23.70
2022-12-01T17:29:32.928Z,24.17
2022-12-01T17:32:02.037Z,22.87
2022-12-01T17:34:29.793Z,22.37
2022-12-01T17:36:57.690Z,23.40
2022-12-01T17:39:25.375Z,22.73
2022-12-01T17:41:54.973Z,23.73
2022-12-01T17:44:22.698Z,22.03
2022-12-01T17:46:50.480Z,23.80
2022-12-01T17:49:19.677Z,22.67
2022-12-01T17:51:47.414Z,23.47
2022-12-01T17:54:15.223Z,21.87
2022-12-01T17:56:43.008Z,22.53
2022-12-01T17:59:10.860Z,23.67
2022-12-01T18:01:39.599Z,22.83
2022-12-01T18:04:07.615Z,23.67
2022-12-01T18:06:36.973Z,23.63
2022-12-01T18:09:04.914Z,21.93
2022-12-01T18:11:32.901Z,23.40
2022-12-01T18:14:01.965Z,23.80
2022-12-01T18:16:31.877Z,23.07
2022-12-01T18:19:01.113Z,23.57
2022-12-01T18:21:29.689Z,23.03
2022-12-01T18:24:01.077Z,24.20
2022-12-01T18:26:30.289Z,22.43
2022-12-01T18:29:00.584Z,25.43
2022-12-01T18:31:29.927Z,23.27
2022-12-01T18:34:02.620Z,24.17
2022-12-01T18:36:31.317Z,23.23
2022-12-01T18:39:01.634Z,22.97
2022-12-01T18:41:29.890Z,25.37
2022-12-01T18:43:57.704Z,24.63
2022-12-01T18:46:25.683Z,24.40
2022-12-01T18:49:00.395Z,25.00
2022-12-01T18:51:28.839Z,24.83
2022-12-01T18:53:57.304Z,23.53
2022-12-01T18:56:29.888Z,23.43
2022-12-01T18:58:58.731Z,24.17
2022-12-01T19:01:28.930Z,24.63
2022-12-01T19:03:57.838Z,23.63
2022-12-01T19:06:26.862Z,23.83
2022-12-01T19:08:55.454Z,23.60
2022-12-01T19:11:23.286Z,24.40
2022-12-01T19:13:52.375Z,23.17
2022-12-01T19:16:20.895Z,23.53
2022-12-01T19:18:48.800Z,24.27
2022-12-01T19:21:18.684Z,23.37
2022-12-01T19:23:47.185Z,23.70
2022-12-01T19:26:17.702Z,24.90
2022-12-01T19:28:46.393Z,25.23
2022-12-01T19:31:18.205Z,24.83
2022-12-01T19:33:46.105Z,24.43
2022-12-01T19:36:15.882Z,24.40
2022-12-01T19:38:44.636Z,25.27
2022-12-01T19:41:13.626Z,23.97
2022-12-01T19:43:42.179Z,25.90
2022-12-01T19:46:12.746Z,22.73
2022-12-01T19:48:42.289Z,23.73
2022-12-01T19:51:17.520Z,24.33
2022-12-01T19:53:45.292Z,24.50
2022-12-01T19:56:13.833Z,25.63
2022-12-01T19:58:41.931Z,24.13
2022-12-01T20:01:12.497Z,24.57
2022-12-01T20:03:42.837Z,25.37
2022-12-01T20:06:12.314Z,26.17
2022-12-01T20:08:40.723Z,25.10
2022-12-01T20:11:09.293Z,26.03
2022-12-01T20:13:38.758Z,23.87
2022-12-01T20:16:08.685Z,23.87
2022-12-01T20:18:37.225Z,24.57
2022-12-01T20:21:08.606Z,23.57
2022-12-01T20:23:37.314Z,23.63
2022-12-01T20:26:07.093Z,25.03
2022-12-01T20:28:36.099Z,24.57
2022-12-01T20:31:04.977Z,23.80
2022-12-01T20:33:32.767Z,25.27
2022-12-01T20:36:00.579Z,24.63
2022-12-01T20:38:29.711Z,26.27
2022-12-01T20:40:57.474Z,26.93
2022-12-01T20:43:25.165Z,24.20
2022-12-01T20:45:53.043Z,23.13
2022-12-01T20:48:20.869Z,23.93
2022-12-01T20:50:48.912Z,24.77
2022-12-01T20:53:17.073Z,25.77
2022-12-01T20:55:46.757Z,24.83
2022-12-01T20:58:14.610Z,23.83
2022-12-01T21:00:44.206Z,25.40
2022-12-01T21:03:12.972Z,25.43
2022-12-01T21:05:42.404Z,24.07
2022-12-01T21:08:13.059Z,25.57
2022-12-01T21:10:42.552Z,24.27
2022-12-01T21:13:36.779Z,23.60
2022-12-01T21:16:10.806Z,25.03
2022-12-01T21:18:50.454Z,24.40
2022-12-01T21:21:24.384Z,25.03
2022-12-01T21:24:03.699Z,25.47
2022-12-01T21:26:31.425Z,25.20
2022-12-01T21:29:01.943Z,24.10
2022-12-01T21:31:29.713Z,23.87
2022-12-01T21:33:57.545Z,25.80
2022-12-01T21:36:29.980Z,24.90
2022-12-01T21:39:09.443Z,23.37
2022-12-01T21:41:37.889Z,23.80
2022-12-01T21:44:14.844Z,23.20
2022-12-01T21:46:42.729Z,23.77
2022-12-01T21:49:14.384Z,23.83
2022-12-01T21:51:42.179Z,25.50
2022-12-01T21:54:14.888Z,24.70
2022-12-01T21:56:43.029Z,24.63
2022-12-01T21:59:19.099Z,24.20
2022-12-01T22:01:47.523Z,23.70
2022-12-01T22:04:21.983Z,23.97
2022-12-01T22:06:50.900Z,24.13
2022-12-01T22:09:24.420Z,24.60
2022-12-01T22:11:54.860Z,24.77
2022-12-01T22:14:28.701Z,23.60
2022-12-01T22:16:58.448Z,25.70
2022-12-01T22:19:29.360Z,23.67
2022-12-01T22:22:15.646Z,25.03
2022-12-01T22:24:44.577Z,24.20
2022-12-01T22:27:30.490Z,24.67
2022-12-01T22:30:02.391Z,24.77
2022-12-01T22:32:35.051Z,22.73
2022-12-01T22:35:19.619Z,24.50
2022-12-01T22:37:49.571Z,25.60
2022-12-01T22:40:32.868Z,24.43
2022-12-01T22:43:13.824Z,24.67
2022-12-01T22:45:43.555Z,23.87
2022-12-01T22:48:27.464Z,24.60
2022-12-01T22:50:55.613Z,25.00
2022-12-01T22:53:29.279Z,23.50
2022-12-01T22:56:01.163Z,24.10
2022-12-01T22:58:31.672Z,25.57
2022-12-01T23:01:03.626Z,25.20
2022-12-01T23:03:32.392Z,23.87
2022-12-01T23:06:00.124Z,24.80
2022-12-01T23:08:27.869Z,23.20
2022-12-01T23:10:55.738Z,21.60
2022-12-01T23:13:25.095Z,23.63
2022-12-01T23:15:54.457Z,23.17
2022-12-01T23:18:25.153Z,23.90
2022-12-01T23:20:54.532Z,24.20
2022-12-01T23:23:27.349Z,22.90
2022-12-01T23:25:55.715Z,23.60
2022-12-01T23:28:23.685Z,23.17
2022-12-01T23:30:55.708Z,23.87
2022-12-01T23:33:26.017Z,22.90
2022-12-01T23:35:56.999Z,23.63
2022-12-01T23:38:27.348Z,22.60
2022-12-01T23:40:58.323Z,23.70
2022-12-01T23:43:29.232Z,23.07
2022-12-01T23:46:04.064Z,24.57
2022-12-01T23:48:37.057Z,23.90
2022-12-01T23:51:05.938Z,24.20
2022-12-01T23:53:34.133Z,24.13
2022-12-01T23:56:06.583Z,23.07
2022-12-01T23:58:35.145Z,25.20
